Welcome to Des Moines Iowa Weather. I am an independent private personal weather station on the Northwest Side of Des Moines, Iowa. Just East of Windsor Heights and just West of Glendale . This site is also mobile friendly.

There are no active watches, warnings or advisories


Visit our other weather sites:

Historical Data

Weather Station Setup



Weather Underground History page Text

Daily Summary for June 25, 2017 Units:  English    Metric   Both
« Previous Day
Next Day »
Daily Weekly Monthly Yearly Custom
  High: Low: Average:
Temperature: 75.3 °F 51.0 °F 63.3 °F
Dew Point: 50.0 °F 44.0 °F 46.6 °F
Humidity: 79 % 36 % 57 %
Wind Speed: 9.0 mph 0.0 mph 1.6 mph
Wind Gust: 16.0 mph - -
Wind:- - SW
Pressure: 30.22 in 30.12 in -
Precipitation: 0.00 in    
Historical Graphs
 
 
Tabular Data for June 25, 2017
Time Temperature Dew Point Pressure Wind Wind Speed Wind Gust Humidity Rainfall Rate (Hourly)
00:07 60.7 °F 47.0 °F 30.12 in Calm     61 % 0.00 in
00:22 59.7 °F 47.0 °F 30.12 in Calm     63 % 0.00 in
00:37 58.7 °F 47.0 °F 30.13 in Calm     66 % 0.00 in
00:52 57.9 °F 47.0 °F 30.13 in Calm     68 % 0.00 in
01:07 57.1 °F 48.0 °F 30.13 in Calm     71 % 0.00 in
01:22 56.4 °F 47.0 °F 30.13 in Calm     71 % 0.00 in
01:37 55.8 °F 47.0 °F 30.13 in Calm     71 % 0.00 in
01:52 55.3 °F 46.0 °F 30.13 in Calm     71 % 0.00 in
02:07 55.0 °F 46.0 °F 30.13 in Calm     72 % 0.00 in
02:22 54.6 °F 46.0 °F 30.13 in Calm     73 % 0.00 in
02:37 54.3 °F 46.0 °F 30.13 in Calm     73 % 0.00 in
02:52 54.0 °F 46.0 °F 30.13 in Calm     73 % 0.00 in
03:08 53.9 °F 45.0 °F 30.14 in Calm   1.0 mph 72 % 0.00 in
03:22 53.7 °F 45.0 °F 30.13 in Calm     72 % 0.00 in
03:37 53.7 °F 45.0 °F 30.13 in Calm     72 % 0.00 in
03:53 53.6 °F 45.0 °F 30.14 in Calm   3.0 mph 72 % 0.00 in
04:08 53.5 °F 45.0 °F 30.14 in Calm     73 % 0.00 in
04:23 53.2 °F 45.0 °F 30.14 in Calm     73 % 0.00 in
04:38 52.9 °F 44.0 °F 30.15 in Calm     73 % 0.00 in
04:53 52.5 °F 44.0 °F 30.15 in Calm     73 % 0.00 in
05:08 52.2 °F 45.0 °F 30.16 in Calm     75 % 0.00 in
05:23 51.7 °F 44.0 °F 30.16 in Calm     76 % 0.00 in
05:38 51.3 °F 45.0 °F 30.16 in Calm     78 % 0.00 in
05:53 51.0 °F 45.0 °F 30.18 in Calm     79 % 0.00 in
06:08 51.0 °F 45.0 °F 30.18 in Calm   3.0 mph 79 % 0.00 in
06:23 51.4 °F 45.0 °F 30.18 in Calm   6.0 mph 79 % 0.00 in
06:38 51.9 °F 45.0 °F 30.19 in NNW 1.0 mph 4.0 mph 78 % 0.00 in
06:53 52.4 °F 45.0 °F 30.19 in NNW 2.0 mph 3.0 mph 77 % 0.00 in
07:08 53.1 °F 46.0 °F 30.20 in NW 2.0 mph 5.0 mph 76 % 0.00 in
07:23 53.9 °F 47.0 °F 30.20 in NNE 3.0 mph 4.0 mph 76 % 0.00 in
07:38 55.0 °F 47.0 °F 30.20 in NE 2.0 mph 6.0 mph 75 % 0.00 in
07:53 56.1 °F 48.0 °F 30.20 in Calm   9.0 mph 73 % 0.00 in
08:08 57.1 °F 49.0 °F 30.21 in ENE 1.0 mph 6.0 mph 73 % 0.00 in
08:23 58.2 °F 49.0 °F 30.21 in West 4.0 mph 9.0 mph 71 % 0.00 in
08:38 59.3 °F 49.0 °F 30.21 in North 3.0 mph 11.0 mph 69 % 0.00 in
08:53 60.2 °F 49.0 °F 30.21 in NW 3.0 mph 10.0 mph 67 % 0.00 in
09:08 61.1 °F 49.0 °F 30.21 in NNW 4.0 mph 12.0 mph 65 % 0.00 in
09:23 61.6 °F 50.0 °F 30.21 in NNW 2.0 mph 9.0 mph 65 % 0.00 in
09:38 62.2 °F 49.0 °F 30.21 in NW 2.0 mph 12.0 mph 63 % 0.00 in
09:53 62.7 °F 49.0 °F 30.21 in SW 1.0 mph 9.0 mph 62 % 0.00 in
10:08 63.6 °F 49.0 °F 30.21 in West 4.0 mph 9.0 mph 59 % 0.00 in
10:23 64.2 °F 49.0 °F 30.21 in NNE 3.0 mph 9.0 mph 59 % 0.00 in
10:38 65.4 °F 47.0 °F 30.21 in ESE 3.0 mph 12.0 mph 52 % 0.00 in
10:54 66.2 °F 47.0 °F 30.21 in West 2.0 mph 11.0 mph 51 % 0.00 in
11:09 66.1 °F 47.0 °F 30.22 in WNW 7.0 mph 14.0 mph 50 % 0.00 in
11:24 66.4 °F 46.0 °F 30.22 in NNW 4.0 mph 12.0 mph 49 % 0.00 in
11:39 67.5 °F 48.0 °F 30.21 in South 9.0 mph 10.0 mph 49 % 0.00 in
11:54 68.1 °F 47.0 °F 30.22 in North 6.0 mph 12.0 mph 47 % 0.00 in
12:09 68.1 °F 46.0 °F 30.22 in North 2.0 mph 16.0 mph 46 % 0.00 in
12:24 68.6 °F 47.0 °F 30.22 in NW 6.0 mph 12.0 mph 46 % 0.00 in
12:39 68.7 °F 45.0 °F 30.21 in SSW 4.0 mph 11.0 mph 43 % 0.00 in
12:54 68.6 °F 45.0 °F 30.20 in NNE 5.0 mph 11.0 mph 43 % 0.00 in
13:09 69.3 °F 48.0 °F 30.21 in North 5.0 mph 10.0 mph 46 % 0.00 in
13:24 70.2 °F 47.0 °F 30.20 in NNE 4.0 mph 8.0 mph 44 % 0.00 in
13:39 71.0 °F 47.0 °F 30.20 in SSW 4.0 mph 9.0 mph 43 % 0.00 in
13:54 71.0 °F 46.0 °F 30.19 in Calm   11.0 mph 41 % 0.00 in
14:09 71.6 °F 48.0 °F 30.19 in West 4.0 mph 7.0 mph 44 % 0.00 in
14:24 71.9 °F 47.0 °F 30.18 in NNW 6.0 mph 14.0 mph 41 % 0.00 in
14:39 71.4 °F 45.0 °F 30.18 in WNW 5.0 mph 10.0 mph 39 % 0.00 in
14:54 71.7 °F 49.0 °F 30.18 in SW 2.0 mph 6.0 mph 45 % 0.00 in
15:09 72.2 °F 47.0 °F 30.18 in NW 2.0 mph 8.0 mph 41 % 0.00 in
15:24 73.0 °F 47.0 °F 30.18 in WSW 4.0 mph 9.0 mph 39 % 0.00 in
15:39 73.7 °F 48.0 °F 30.18 in NW 3.0 mph 12.0 mph 40 % 0.00 in
15:54 74.7 °F 47.0 °F 30.17 in NE 2.0 mph 5.0 mph 37 % 0.00 in
16:09 74.2 °F 46.0 °F 30.17 in NE 3.0 mph 10.0 mph 37 % 0.00 in
16:24 74.1 °F 47.0 °F 30.17 in Calm   10.0 mph 38 % 0.00 in
16:39 74.4 °F 50.0 °F 30.16 in NW 2.0 mph 8.0 mph 42 % 0.00 in
16:54 74.4 °F 48.0 °F 30.16 in NW 3.0 mph 9.0 mph 39 % 0.00 in
17:09 74.8 °F 47.0 °F 30.16 in NE 3.0 mph 9.0 mph 37 % 0.00 in
17:24 75.3 °F 47.0 °F 30.16 in NE 1.0 mph 6.0 mph 37 % 0.00 in
17:39 74.3 °F 46.0 °F 30.16 in NNW 4.0 mph 11.0 mph 36 % 0.00 in
17:54 74.6 °F 47.0 °F 30.16 in Calm   5.0 mph 37 % 0.00 in
18:09 74.9 °F 48.0 °F 30.16 in Calm   5.0 mph 38 % 0.00 in
18:24 74.3 °F 46.0 °F 30.16 in South 4.0 mph 5.0 mph 37 % 0.00 in
18:39 72.8 °F 46.0 °F 30.15 in Calm   4.0 mph 38 % 0.00 in
18:54 71.9 °F 45.0 °F 30.15 in ENE 1.0 mph 8.0 mph 38 % 0.00 in
19:09 71.4 °F 45.0 °F 30.15 in SW 1.0 mph 5.0 mph 39 % 0.00 in
19:24 71.0 °F 45.0 °F 30.15 in Calm   3.0 mph 40 % 0.00 in
19:39 70.5 °F 44.0 °F 30.15 in NNW 1.0 mph 9.0 mph 39 % 0.00 in
19:54 70.2 °F 45.0 °F 30.15 in North 2.0 mph 5.0 mph 40 % 0.00 in
20:09 69.8 °F 46.0 °F 30.15 in Calm   4.0 mph 42 % 0.00 in
20:25 69.3 °F 45.0 °F 30.15 in Calm   5.0 mph 42 % 0.00 in
20:41 68.6 °F 45.0 °F 30.15 in Calm   1.0 mph 43 % 0.00 in
20:55 67.9 °F 46.0 °F 30.15 in Calm     45 % 0.00 in
21:09 67.0 °F 46.0 °F 30.15 in Calm     48 % 0.00 in
21:24 65.9 °F 47.0 °F 30.15 in Calm     50 % 0.00 in
21:40 64.8 °F 47.0 °F 30.15 in Calm     52 % 0.00 in
21:55 63.8 °F 47.0 °F 30.16 in Calm     54 % 0.00 in
22:10 62.7 °F 47.0 °F 30.16 in Calm     57 % 0.00 in
22:24 61.9 °F 47.0 °F 30.16 in Calm     58 % 0.00 in
22:40 61.1 °F 47.0 °F 30.16 in Calm     60 % 0.00 in
22:55 60.3 °F 47.0 °F 30.16 in Calm     62 % 0.00 in
23:10 59.6 °F 47.0 °F 30.15 in Calm     63 % 0.00 in
23:25 59.0 °F 47.0 °F 30.15 in Calm     65 % 0.00 in
23:40 58.6 °F 47.0 °F 30.16 in Calm     66 % 0.00 in
23:55 58.1 °F 47.0 °F 30.16 in Calm     67 % 0.00 in
Des Moines Weather and Climate
Compliments of Weather Underground - 3 mb

Script developed by  Jim McMurry - jmcmurry@mwt.net Adapted for the template by  Wim van der Kuil - Leuven-Template.eu

You find our weather info also at:

Weather Underground

Equipment we use:

Weather-station
Davis VP2 Plus

Weather-program
Davis Weatherlink.Com

Weather-server
iMac (Retina 4K, 21.5-inch, Late 2015)

Provider
Hostmonster.com

Davis VP2 Plus

Davis Weatherlink.Com

iMac (Retina 4K, 21.5-inch, Late 2015)

Hostmonster.com